TAF PAQT
PAQT 090536Z 0906/1006 19009KT P6SM SCT035 FM100300 21005KT P6SM OVC025 AMD NOT SKED=
METAR PAQT
WC PAQT
WS PAQT
WV PAQT